createdAt,value
2022-08-11T00:00:13.468Z,33.83
2022-08-11T00:01:50.436Z,33.82
2022-08-11T00:03:22.518Z,34.02
2022-08-11T00:05:17.560Z,34.03
2022-08-11T00:06:50.262Z,33.94
2022-08-11T00:08:24.867Z,34.03
2022-08-11T00:09:57.534Z,34.04
2022-08-11T00:11:34.665Z,34.15
2022-08-11T00:13:08.368Z,34.16
2022-08-11T00:14:46.731Z,33.84
2022-08-11T00:16:20.864Z,34.09
2022-08-11T00:17:58.923Z,34.05
2022-08-11T00:20:12.931Z,33.92
2022-08-11T00:22:04.637Z,34.10
2022-08-11T00:23:20.537Z,34.20
2022-08-11T00:24:57.237Z,34.31
2022-08-11T00:26:31.903Z,34.46
2022-08-11T00:28:03.986Z,34.35
2022-08-11T00:29:38.017Z,34.66
2022-08-11T00:31:29.954Z,34.54
2022-08-11T00:33:01.886Z,34.47
2022-08-11T00:34:37.422Z,34.55
2022-08-11T00:36:12.933Z,34.80
2022-08-11T00:37:49.730Z,34.77
2022-08-11T00:39:28.689Z,34.72
2022-08-11T00:41:11.279Z,34.99
2022-08-11T00:42:54.869Z,34.60
2022-08-11T00:44:37.791Z,34.96
2022-08-11T00:46:18.537Z,35.10
2022-08-11T00:48:00.876Z,35.18
2022-08-11T00:49:44.767Z,34.83
2022-08-11T00:52:04.620Z,35.07
2022-08-11T00:53:39.161Z,34.90
2022-08-11T00:55:36.839Z,35.21
2022-08-11T00:57:53.427Z,35.27
2022-08-11T00:59:58.567Z,35.21
2022-08-11T01:01:57.929Z,35.26
2022-08-11T01:03:56.372Z,35.40
2022-08-11T01:05:58.041Z,35.27
2022-08-11T01:08:01.930Z,35.41
2022-08-11T01:10:05.115Z,35.49
2022-08-11T01:12:17.213Z,36.27
2022-08-11T01:14:33.731Z,36.94
2022-08-11T01:16:29.769Z,36.50
2022-08-11T01:18:39.029Z,36.85
2022-08-11T01:20:46.416Z,36.70
2022-08-11T01:22:57.546Z,36.86
2022-08-11T01:24:59.598Z,36.74
2022-08-11T01:27:18.822Z,37.10
2022-08-11T01:29:29.772Z,36.86
2022-08-11T01:31:40.341Z,37.16
2022-08-11T01:33:48.863Z,37.27
2022-08-11T01:35:34.960Z,37.42
2022-08-11T01:37:29.983Z,37.52
2022-08-11T01:39:36.656Z,37.97
2022-08-11T01:41:58.515Z,37.70
2022-08-11T01:44:36.245Z,38.13
2022-08-11T01:46:14.886Z,37.96
2022-08-11T01:47:55.969Z,37.72
2022-08-11T01:50:09.700Z,38.00
2022-08-11T01:51:45.763Z,38.22
2022-08-11T01:53:28.476Z,38.68
2022-08-11T01:55:14.790Z,38.83
2022-08-11T01:57:05.896Z,38.81
2022-08-11T01:58:45.588Z,39.24
2022-08-11T02:00:19.284Z,39.33
2022-08-11T02:02:41.855Z,39.45
2022-08-11T02:04:25.240Z,39.17
2022-08-11T02:06:24.592Z,39.37
2022-08-11T02:08:08.300Z,39.14
2022-08-11T02:10:00.713Z,39.29
2022-08-11T02:11:37.796Z,39.78
2022-08-11T02:13:16.793Z,39.64
2022-08-11T02:15:05.219Z,39.92
2022-08-11T02:16:51.011Z,40.48
2022-08-11T02:18:48.583Z,40.08
2022-08-11T02:20:44.461Z,40.27
2022-08-11T02:22:41.906Z,40.27
2022-08-11T02:24:23.833Z,40.23
2022-08-11T02:26:02.157Z,40.28
2022-08-11T02:27:41.375Z,40.34
2022-08-11T02:29:20.992Z,40.56
2022-08-11T02:32:15.747Z,40.54
2022-08-11T02:33:23.793Z,40.74
2022-08-11T02:35:03.665Z,40.70
2022-08-11T02:36:43.230Z,40.64
2022-08-11T02:38:21.923Z,41.09
2022-08-11T02:40:10.188Z,41.01
2022-08-11T02:42:32.742Z,41.47
2022-08-11T02:44:29.688Z,42.07
2022-08-11T02:46:18.398Z,42.53
2022-08-11T02:48:18.080Z,42.76
2022-08-11T02:50:00.072Z,43.15
2022-08-11T02:51:48.257Z,43.23
2022-08-11T02:53:25.460Z,43.32
2022-08-11T02:55:48.910Z,43.44
2022-08-11T02:57:16.097Z,43.28
2022-08-11T02:59:13.944Z,43.33
2022-08-11T03:00:51.075Z,43.48
2022-08-11T03:02:50.182Z,43.51
2022-08-11T03:04:37.732Z,43.25
2022-08-11T03:06:19.627Z,43.07
2022-08-11T03:08:10.937Z,43.45
2022-08-11T03:09:51.043Z,43.32
2022-08-11T03:11:57.868Z,43.35
2022-08-11T03:13:52.642Z,43.09
2022-08-11T03:16:06.298Z,43.30
2022-08-11T03:17:43.950Z,43.45
2022-08-11T03:19:24.585Z,43.44
2022-08-11T03:21:02.587Z,43.27
2022-08-11T03:22:40.989Z,43.42
2022-08-11T03:24:21.935Z,43.64
2022-08-11T03:26:14.498Z,44.04
2022-08-11T03:27:52.412Z,43.84
2022-08-11T03:29:31.645Z,43.87
2022-08-11T03:31:20.384Z,43.90
2022-08-11T03:33:23.481Z,43.68
2022-08-11T03:35:01.233Z,43.80
2022-08-11T03:37:35.579Z,44.31
2022-08-11T03:39:20.309Z,44.04
2022-08-11T03:42:01.788Z,44.27
2022-08-11T03:43:29.383Z,44.19
2022-08-11T03:45:17.595Z,44.41
2022-08-11T03:47:06.924Z,44.47
2022-08-11T03:48:49.087Z,44.62
2022-08-11T03:50:39.990Z,44.88
2022-08-11T03:52:22.101Z,44.84
2022-08-11T03:54:09.984Z,44.90
2022-08-11T03:56:13.369Z,45.03
2022-08-11T03:58:34.973Z,45.08
2022-08-11T04:00:53.099Z,45.51
2022-08-11T04:02:43.625Z,45.46
2022-08-11T04:04:51.195Z,45.44
2022-08-11T04:06:47.501Z,45.55
2022-08-11T04:08:52.564Z,45.90
2022-08-11T04:11:06.707Z,45.72
2022-08-11T04:13:23.381Z,45.87
2022-08-11T04:15:53.780Z,45.97
2022-08-11T04:18:11.723Z,46.18
2022-08-11T04:20:19.271Z,46.20
2022-08-11T04:22:16.989Z,46.70
2022-08-11T04:24:38.575Z,46.67
2022-08-11T04:26:52.126Z,46.74
2022-08-11T04:28:50.372Z,46.49
2022-08-11T04:30:30.296Z,46.59
2022-08-11T04:32:23.113Z,46.72
2022-08-11T04:34:26.691Z,46.96
2022-08-11T04:36:10.194Z,46.77
2022-08-11T04:38:23.345Z,47.41
2022-08-11T04:40:33.789Z,47.56
2022-08-11T04:43:25.515Z,47.62
2022-08-11T04:45:29.187Z,47.62
2022-08-11T04:47:59.755Z,47.69
2022-08-11T04:50:23.213Z,47.59
2022-08-11T04:52:16.691Z,47.59
2022-08-11T04:54:19.270Z,47.63
2022-08-11T04:56:25.513Z,47.82
2022-08-11T04:58:31.112Z,47.94
2022-08-11T05:00:25.329Z,47.79
2022-08-11T05:02:23.213Z,48.09
2022-08-11T05:04:31.916Z,48.09
2022-08-11T05:06:44.223Z,48.23
2022-08-11T05:08:43.700Z,48.23
2022-08-11T05:10:43.337Z,48.53
2022-08-11T05:12:29.886Z,48.63
2022-08-11T05:14:46.090Z,48.73
2022-08-11T05:16:39.849Z,48.29
2022-08-11T05:18:39.334Z,48.25
2022-08-11T05:20:31.298Z,48.26
2022-08-11T05:22:27.305Z,48.44
2022-08-11T05:24:43.149Z,48.45
2022-08-11T05:26:48.055Z,48.28
2022-08-11T05:28:49.678Z,48.54
2022-08-11T05:30:45.694Z,49.12
2022-08-11T05:32:36.692Z,49.17
2022-08-11T05:34:31.274Z,48.54
2022-08-11T05:36:18.948Z,48.10
2022-08-11T05:38:12.101Z,47.93
2022-08-11T05:40:05.955Z,47.92
2022-08-11T05:41:57.339Z,47.67
2022-08-11T05:44:20.035Z,47.74
2022-08-11T05:46:03.740Z,47.82
2022-08-11T05:47:55.728Z,47.82
2022-08-11T05:49:49.065Z,47.60
2022-08-11T05:51:52.439Z,47.49
2022-08-11T05:53:47.445Z,47.18
2022-08-11T05:56:02.089Z,46.87
2022-08-11T05:57:48.622Z,46.48
2022-08-11T05:59:25.851Z,47.20
2022-08-11T06:00:59.152Z,46.85
2022-08-11T06:02:31.319Z,46.76
2022-08-11T06:04:16.750Z,46.71
2022-08-11T06:05:48.924Z,46.34
2022-08-11T06:07:29.763Z,46.18
2022-08-11T06:09:27.571Z,46.01
2022-08-11T06:11:05.175Z,45.39
2022-08-11T06:12:38.391Z,45.33
2022-08-11T06:14:11.548Z,44.83
2022-08-11T06:15:48.640Z,45.33
2022-08-11T06:17:23.847Z,45.84
2022-08-11T06:18:56.207Z,45.19
2022-08-11T06:20:32.755Z,45.03
2022-08-11T06:22:06.426Z,45.13
2022-08-11T06:23:40.500Z,45.17
2022-08-11T06:25:14.228Z,44.26
2022-08-11T06:28:45.215Z,44.67
2022-08-11T06:30:19.352Z,44.62
2022-08-11T06:31:53.509Z,44.04
2022-08-11T06:33:33.341Z,43.64
2022-08-11T06:35:15.673Z,43.13
2022-08-11T06:36:58.077Z,42.78
2022-08-11T06:38:47.312Z,40.13
2022-08-11T06:40:31.143Z,39.04
2022-08-11T06:42:08.875Z,38.92
2022-08-11T06:43:55.968Z,38.63
2022-08-11T06:45:37.486Z,38.33
2022-08-11T06:47:11.543Z,38.22
2022-08-11T06:48:45.181Z,37.93
2022-08-11T06:50:37.466Z,37.56
2022-08-11T06:52:34.512Z,36.68
2022-08-11T06:54:13.495Z,35.99
2022-08-11T06:56:08.413Z,35.77
2022-08-11T06:58:04.792Z,35.92
2022-08-11T06:59:56.257Z,36.04
2022-08-11T07:01:48.563Z,35.43
2022-08-11T07:03:23.418Z,35.67
2022-08-11T07:05:01.186Z,35.11
2022-08-11T07:07:10.631Z,35.06
2022-08-11T07:09:07.679Z,34.72
2022-08-11T07:11:14.593Z,34.86
2022-08-11T07:13:10.187Z,35.01
2022-08-11T07:15:24.692Z,34.52
2022-08-11T07:17:21.630Z,34.41
2022-08-11T07:19:16.583Z,34.17
2022-08-11T07:22:01.247Z,33.92
2022-08-11T07:23:29.346Z,33.86
2022-08-11T07:25:26.162Z,33.86
2022-08-11T07:27:23.671Z,33.75
2022-08-11T07:28:57.907Z,33.37
2022-08-11T07:30:31.187Z,33.28
2022-08-11T07:32:13.117Z,32.56
2022-08-11T07:34:06.376Z,32.90
2022-08-11T07:35:45.834Z,32.79
2022-08-11T07:37:20.461Z,32.55
2022-08-11T07:38:54.593Z,32.78
2022-08-11T07:40:26.862Z,32.66
2022-08-11T07:42:05.056Z,32.44
2022-08-11T07:43:37.897Z,32.49
2022-08-11T07:45:29.695Z,32.31
2022-08-11T07:47:20.334Z,32.02
2022-08-11T07:49:11.533Z,31.89
2022-08-11T07:51:03.134Z,31.83
2022-08-11T07:52:38.130Z,32.31
2022-08-11T07:54:16.967Z,31.92
2022-08-11T07:55:53.537Z,31.89
2022-08-11T07:58:15.247Z,31.42
2022-08-11T08:00:04.773Z,31.85
2022-08-11T08:02:08.197Z,31.39
2022-08-11T08:04:00.400Z,31.35
2022-08-11T08:05:50.542Z,31.43
2022-08-11T08:07:41.696Z,30.87
2022-08-11T08:09:34.923Z,31.12
2022-08-11T08:11:27.274Z,31.16
2022-08-11T08:13:19.885Z,30.68
2022-08-11T08:15:12.495Z,30.48
2022-08-11T08:17:03.340Z,30.85
2022-08-11T08:18:36.805Z,30.46
2022-08-11T08:20:12.266Z,30.22
2022-08-11T08:21:45.644Z,30.47
2022-08-11T08:23:18.365Z,30.32
2022-08-11T08:24:51.380Z,30.23
2022-08-11T08:26:42.262Z,30.14
2022-08-11T08:28:28.981Z,30.13
2022-08-11T08:30:24.405Z,29.83
2022-08-11T08:31:57.144Z,29.90
2022-08-11T08:33:31.481Z,29.87
2022-08-11T08:35:04.898Z,29.67
2022-08-11T08:36:37.328Z,29.70
2022-08-11T08:38:09.194Z,30.05
2022-08-11T08:39:41.091Z,30.21
2022-08-11T08:41:16.646Z,30.09
2022-08-11T08:42:53.682Z,29.74
2022-08-11T08:44:38.351Z,29.30
2022-08-11T08:46:13.876Z,29.20
2022-08-11T08:47:52.564Z,29.59
2022-08-11T08:49:32.026Z,29.38
2022-08-11T08:51:28.929Z,29.52
2022-08-11T08:53:23.106Z,29.11
2022-08-11T08:54:57.023Z,28.95
2022-08-11T08:56:30.133Z,28.60
2022-08-11T08:58:02.822Z,28.50
2022-08-11T08:59:48.720Z,28.36
2022-08-11T09:01:23.293Z,28.56
2022-08-11T09:02:55.570Z,28.32
2022-08-11T09:04:28.602Z,28.23
2022-08-11T09:06:00.793Z,28.46
2022-08-11T09:07:38.596Z,28.22
2022-08-11T09:09:12.330Z,28.25
2022-08-11T09:10:46.775Z,28.44
2022-08-11T09:12:36.394Z,28.16
2022-08-11T09:14:15.074Z,28.06
2022-08-11T09:15:51.065Z,27.34
2022-08-11T09:17:27.618Z,27.23
2022-08-11T09:19:00.918Z,27.34
2022-08-11T09:20:34.928Z,27.62
2022-08-11T09:22:26.365Z,27.70
2022-08-11T09:24:25.876Z,27.70
2022-08-11T09:26:19.201Z,27.53
2022-08-11T09:27:52.417Z,27.59
2022-08-11T09:29:24.426Z,27.59
2022-08-11T09:31:01.048Z,27.51
2022-08-11T09:32:34.059Z,27.37
2022-08-11T09:34:05.973Z,27.17
2022-08-11T09:35:39.468Z,27.20
2022-08-11T09:37:55.270Z,27.13
2022-08-11T09:39:42.550Z,27.08
2022-08-11T09:41:14.914Z,27.18
2022-08-11T09:43:06.145Z,26.84
2022-08-11T09:44:50.631Z,27.08
2022-08-11T09:46:28.505Z,26.78
2022-08-11T09:48:05.315Z,26.91
2022-08-11T09:49:37.786Z,26.67
2022-08-11T09:51:10.283Z,26.38
2022-08-11T09:53:09.945Z,26.27
2022-08-11T09:54:37.458Z,26.07
2022-08-11T09:56:35.520Z,25.84
2022-08-11T09:58:41.652Z,26.00
2022-08-11T10:00:12.189Z,26.03
2022-08-11T10:01:50.562Z,25.79
2022-08-11T10:03:24.158Z,25.76
2022-08-11T10:05:16.655Z,25.93
2022-08-11T10:07:04.539Z,25.74
2022-08-11T10:08:39.238Z,25.95
2022-08-11T10:10:11.465Z,25.35
2022-08-11T10:11:44.116Z,25.60
2022-08-11T10:14:31.614Z,25.20
2022-08-11T10:15:35.171Z,25.21
2022-08-11T10:17:10.028Z,25.41
2022-08-11T10:18:52.775Z,25.29
2022-08-11T10:20:26.563Z,25.01
2022-08-11T10:22:17.165Z,23.79
2022-08-11T10:24:11.759Z,23.78
2022-08-11T10:26:02.509Z,23.75
2022-08-11T10:28:09.022Z,23.57
2022-08-11T10:29:50.163Z,23.57
2022-08-11T10:31:57.925Z,23.70
2022-08-11T10:33:59.328Z,23.27
2022-08-11T10:35:32.936Z,23.26
2022-08-11T10:37:15.059Z,23.29
2022-08-11T10:38:52.250Z,23.51
2022-08-11T10:40:25.393Z,23.10
2022-08-11T10:42:30.035Z,23.33
2022-08-11T10:44:09.117Z,23.74
2022-08-11T10:46:03.379Z,23.92
2022-08-11T10:47:35.209Z,23.64
2022-08-11T10:49:09.290Z,23.93
2022-08-11T10:51:05.008Z,23.92
2022-08-11T10:52:56.187Z,23.81
2022-08-11T10:54:47.203Z,24.06
2022-08-11T10:56:38.313Z,24.08
2022-08-11T10:58:29.619Z,23.88
2022-08-11T11:00:02.283Z,23.94
2022-08-11T11:01:37.937Z,23.67
2022-08-11T11:03:22.951Z,23.91
2022-08-11T11:05:09.408Z,23.41
2022-08-11T11:07:13.844Z,23.91
2022-08-11T11:08:55.497Z,23.58
2022-08-11T11:10:34.846Z,23.50
2022-08-11T11:12:40.627Z,23.78
2022-08-11T11:14:36.670Z,23.72
2022-08-11T11:16:39.133Z,24.16
2022-08-11T11:18:15.871Z,24.25
2022-08-11T11:19:53.655Z,23.95
2022-08-11T11:21:27.453Z,24.07
2022-08-11T11:23:06.352Z,23.88
2022-08-11T11:24:45.801Z,23.56
2022-08-11T11:26:38.340Z,23.86
2022-08-11T11:28:28.273Z,23.38
2022-08-11T11:30:06.068Z,23.60
2022-08-11T11:31:51.057Z,23.62
2022-08-11T11:34:06.239Z,23.49
2022-08-11T11:35:44.541Z,23.38
2022-08-11T11:37:20.687Z,23.73
2022-08-11T11:38:56.894Z,23.27
2022-08-11T11:40:31.579Z,23.43
2022-08-11T11:42:09.013Z,23.48
2022-08-11T11:43:41.976Z,23.49
2022-08-11T11:45:24.162Z,23.73
2022-08-11T11:47:01.413Z,23.58
2022-08-11T11:48:35.749Z,23.51
2022-08-11T11:50:09.320Z,23.72
2022-08-11T11:51:41.529Z,23.30
2022-08-11T11:53:15.389Z,23.32
2022-08-11T11:54:51.289Z,23.55
2022-08-11T11:56:25.786Z,23.11
2022-08-11T11:58:19.097Z,23.25
2022-08-11T12:00:10.747Z,23.63
2022-08-11T12:01:50.232Z,23.24
2022-08-11T12:03:26.632Z,23.68
2022-08-11T12:04:58.889Z,23.73
2022-08-11T12:06:32.192Z,23.49
2022-08-11T12:08:17.254Z,23.52
2022-08-11T12:09:51.141Z,23.11
2022-08-11T12:11:43.712Z,22.97
2022-08-11T12:13:35.897Z,23.17
2022-08-11T12:15:09.133Z,22.80
2022-08-11T12:16:43.508Z,23.04
2022-08-11T12:18:16.233Z,23.38
2022-08-11T12:19:49.670Z,23.51
2022-08-11T12:21:23.613Z,22.84
2022-08-11T12:23:15.273Z,22.91
2022-08-11T12:25:06.187Z,22.85
2022-08-11T12:26:45.597Z,22.98
2022-08-11T12:28:39.976Z,22.43
2022-08-11T12:30:13.497Z,22.44
2022-08-11T12:31:46.096Z,22.69
2022-08-11T12:33:21.569Z,22.67
2022-08-11T12:34:57.879Z,22.92
2022-08-11T12:36:33.566Z,22.82
2022-08-11T12:38:10.678Z,23.19
2022-08-11T12:40:16.867Z,22.71
2022-08-11T12:42:17.786Z,21.99
2022-08-11T12:44:10.333Z,21.93
2022-08-11T12:45:44.000Z,21.29
2022-08-11T12:47:19.170Z,21.20
2022-08-11T12:49:16.837Z,20.92
2022-08-11T12:51:12.818Z,20.71
2022-08-11T12:52:54.044Z,20.04
2022-08-11T12:54:33.365Z,19.78
2022-08-11T12:56:25.793Z,19.90
2022-08-11T12:58:17.500Z,19.17
2022-08-11T13:00:08.987Z,19.27
2022-08-11T13:01:59.445Z,18.57
2022-08-11T13:03:52.472Z,18.61
2022-08-11T13:05:32.204Z,18.46
2022-08-11T13:07:07.927Z,18.63
2022-08-11T13:08:40.680Z,18.30
2022-08-11T13:10:16.889Z,18.34
2022-08-11T13:12:08.109Z,18.38
2022-08-11T13:13:52.339Z,18.36
2022-08-11T13:15:26.388Z,18.17
2022-08-11T13:17:17.482Z,18.02
2022-08-11T13:18:50.830Z,17.90
2022-08-11T13:20:26.718Z,17.72
2022-08-11T13:22:00.723Z,17.55
2022-08-11T13:23:35.548Z,17.20
2022-08-11T13:25:08.496Z,17.30
2022-08-11T13:26:50.333Z,17.25
2022-08-11T13:28:23.413Z,16.92
2022-08-11T13:30:16.006Z,17.22
2022-08-11T13:31:48.892Z,16.74
2022-08-11T13:33:21.019Z,16.57
2022-08-11T13:34:53.231Z,16.69
2022-08-11T13:36:28.478Z,16.82
2022-08-11T13:38:27.239Z,16.85
2022-08-11T13:39:54.545Z,16.68
2022-08-11T13:41:39.251Z,16.13
2022-08-11T13:43:12.905Z,16.11
2022-08-11T13:44:45.208Z,16.14
2022-08-11T13:46:21.081Z,16.06
2022-08-11T13:47:57.232Z,15.94
2022-08-11T13:49:30.172Z,15.86
2022-08-11T13:51:20.678Z,15.76
2022-08-11T13:52:53.904Z,15.51
2022-08-11T13:54:30.091Z,15.68
2022-08-11T13:56:02.515Z,15.21
2022-08-11T13:58:08.272Z,14.91
2022-08-11T13:59:30.326Z,15.43
2022-08-11T14:02:03.774Z,15.48
2022-08-11T14:03:01.121Z,15.77
2022-08-11T14:04:39.751Z,15.30
2022-08-11T14:06:13.414Z,15.22
2022-08-11T14:07:53.320Z,15.09
2022-08-11T14:09:27.684Z,14.57
2022-08-11T14:12:22.894Z,14.73
2022-08-11T14:13:41.670Z,14.74
2022-08-11T14:15:22.662Z,14.73
2022-08-11T14:16:57.111Z,14.99
2022-08-11T14:18:32.591Z,14.54
2022-08-11T14:20:37.922Z,14.44
2022-08-11T14:22:08.726Z,14.57
2022-08-11T14:23:42.479Z,14.41
2022-08-11T14:25:16.688Z,13.85
2022-08-11T14:26:51.200Z,13.86
2022-08-11T14:28:41.760Z,13.99
2022-08-11T14:30:35.761Z,14.31
2022-08-11T14:32:10.678Z,14.18
2022-08-11T14:34:00.236Z,14.12
2022-08-11T14:35:33.474Z,13.80
2022-08-11T14:37:08.242Z,14.00
2022-08-11T14:38:42.043Z,13.88
2022-08-11T14:40:34.039Z,13.86
2022-08-11T14:42:26.147Z,13.37
2022-08-11T14:44:17.719Z,13.49
2022-08-11T14:46:09.040Z,13.18
2022-08-11T14:47:43.969Z,13.41
2022-08-11T14:49:18.532Z,13.34
2022-08-11T14:50:51.257Z,13.26
2022-08-11T14:52:24.232Z,12.96
2022-08-11T14:54:18.523Z,13.09
2022-08-11T14:56:10.705Z,12.93
2022-08-11T14:57:55.795Z,12.98
2022-08-11T14:59:37.376Z,12.90
2022-08-11T15:01:29.999Z,13.10
2022-08-11T15:03:13.925Z,13.21
2022-08-11T15:04:47.574Z,13.18
2022-08-11T15:06:19.469Z,13.16
2022-08-11T15:07:52.632Z,13.06
2022-08-11T15:09:24.698Z,12.84
2022-08-11T15:10:56.507Z,12.90
2022-08-11T15:12:31.268Z,12.88
2022-08-11T15:14:07.639Z,13.02
2022-08-11T15:16:05.638Z,13.05
2022-08-11T15:17:43.448Z,13.21
2022-08-11T15:19:19.508Z,12.94
2022-08-11T15:21:11.910Z,12.99
2022-08-11T15:23:02.325Z,13.13
2022-08-11T15:24:36.420Z,12.89
2022-08-11T15:26:13.053Z,12.86
2022-08-11T15:28:07.710Z,12.79
2022-08-11T15:30:00.842Z,13.06
2022-08-11T15:31:52.621Z,13.30
2022-08-11T15:33:45.522Z,13.02
2022-08-11T15:35:44.549Z,13.02
2022-08-11T15:37:35.513Z,13.52
2022-08-11T15:39:19.460Z,13.42
2022-08-11T15:41:14.636Z,13.25
2022-08-11T15:43:12.913Z,13.56
2022-08-11T15:45:09.563Z,13.66
2022-08-11T15:46:44.543Z,13.83
2022-08-11T15:48:22.262Z,13.64
2022-08-11T15:50:11.342Z,13.44
2022-08-11T15:51:49.473Z,13.68
2022-08-11T15:53:31.627Z,13.62
2022-08-11T15:55:08.585Z,13.80
2022-08-11T15:56:43.164Z,14.21
2022-08-11T15:58:37.156Z,14.33
2022-08-11T16:00:28.904Z,14.79
2022-08-11T16:02:22.372Z,14.94
2022-08-11T16:04:13.655Z,15.08
2022-08-11T16:05:52.855Z,15.27
2022-08-11T16:07:28.832Z,14.84
2022-08-11T16:09:09.550Z,15.34
2022-08-11T16:10:51.500Z,15.28
2022-08-11T16:12:28.684Z,15.69
2022-08-11T16:14:21.881Z,15.81
2022-08-11T16:16:14.325Z,16.24
2022-08-11T16:17:50.158Z,16.53
2022-08-11T16:19:23.978Z,16.44
2022-08-11T16:20:57.731Z,16.68
2022-08-11T16:22:57.079Z,16.79
2022-08-11T16:27:07.088Z,16.89
2022-08-11T16:27:10.383Z,16.82
2022-08-11T16:28:24.567Z,16.96
2022-08-11T16:29:57.870Z,17.46
2022-08-11T16:31:33.190Z,17.68
2022-08-11T16:33:50.707Z,17.63
2022-08-11T16:35:20.239Z,17.91
2022-08-11T16:37:11.740Z,17.20
2022-08-11T16:38:44.544Z,17.63
2022-08-11T16:40:19.147Z,17.79
2022-08-11T16:42:09.819Z,17.63
2022-08-11T16:44:20.172Z,18.41
2022-08-11T16:46:30.787Z,17.97
2022-08-11T16:48:35.153Z,18.34
2022-08-11T16:49:56.436Z,18.22
2022-08-11T16:51:28.290Z,18.40
2022-08-11T16:53:00.118Z,18.44
2022-08-11T16:54:33.266Z,18.65
2022-08-11T16:56:09.280Z,18.77
2022-08-11T16:58:00.306Z,18.65
2022-08-11T16:59:36.468Z,18.61
2022-08-11T17:01:09.717Z,18.75
2022-08-11T17:03:03.961Z,18.61
2022-08-11T17:05:00.024Z,18.86
2022-08-11T17:06:52.687Z,18.81
2022-08-11T17:08:56.561Z,18.97
2022-08-11T17:11:00.150Z,18.89
2022-08-11T17:12:57.465Z,19.14
2022-08-11T17:14:36.594Z,19.06
2022-08-11T17:16:12.967Z,19.17
2022-08-11T17:17:46.111Z,19.09
2022-08-11T17:20:41.420Z,19.15
2022-08-11T17:21:20.362Z,19.35
2022-08-11T17:23:13.186Z,19.43
2022-08-11T17:24:48.108Z,19.64
2022-08-11T17:26:25.669Z,19.80
2022-08-11T17:28:00.210Z,19.91
2022-08-11T17:29:54.572Z,19.72
2022-08-11T17:31:47.455Z,19.72
2022-08-11T17:33:39.428Z,19.36
2022-08-11T17:35:31.109Z,19.66
2022-08-11T17:37:04.164Z,19.87
2022-08-11T17:38:36.962Z,19.97
2022-08-11T17:40:12.277Z,19.88
2022-08-11T17:42:03.372Z,19.83
2022-08-11T17:43:56.026Z,20.06
2022-08-11T17:45:51.375Z,19.79
2022-08-11T17:47:42.829Z,19.97
2022-08-11T17:49:16.051Z,19.99
2022-08-11T17:50:49.162Z,19.73
2022-08-11T17:52:42.388Z,20.37
2022-08-11T17:54:33.515Z,20.00
2022-08-11T17:56:25.654Z,20.38
2022-08-11T17:58:16.551Z,20.18
2022-08-11T17:59:56.297Z,20.51
2022-08-11T18:01:33.853Z,20.33
2022-08-11T18:03:29.224Z,20.33
2022-08-11T18:05:01.756Z,20.49
2022-08-11T18:06:36.102Z,20.75
2022-08-11T18:08:29.623Z,20.78
2022-08-11T18:10:22.477Z,20.55
2022-08-11T18:12:14.648Z,20.96
2022-08-11T18:14:07.111Z,21.11
2022-08-11T18:16:01.542Z,21.10
2022-08-11T18:17:53.014Z,21.32
2022-08-11T18:19:43.585Z,21.11
2022-08-11T18:21:37.702Z,21.14
2022-08-11T18:23:41.755Z,20.91
2022-08-11T18:25:45.246Z,20.89
2022-08-11T18:27:39.308Z,21.25
2022-08-11T18:29:32.465Z,21.12
2022-08-11T18:31:37.006Z,21.29
2022-08-11T18:35:40.684Z,21.84
2022-08-11T18:37:35.201Z,22.07
2022-08-11T18:39:29.989Z,21.93
2022-08-11T18:41:25.617Z,21.61
2022-08-11T18:43:26.937Z,22.21
2022-08-11T18:45:22.599Z,22.44
2022-08-11T18:47:16.104Z,22.47
2022-08-11T18:49:15.673Z,22.04
2022-08-11T18:51:31.672Z,22.32
2022-08-11T18:53:20.055Z,22.51
2022-08-11T18:55:12.497Z,22.90
2022-08-11T18:57:05.364Z,22.92
2022-08-11T18:58:59.086Z,22.77
2022-08-11T19:00:51.277Z,22.81
2022-08-11T19:02:49.470Z,22.97
2022-08-11T19:04:41.188Z,23.21
2022-08-11T19:06:40.309Z,23.14
2022-08-11T19:08:31.473Z,23.23
2022-08-11T19:10:23.384Z,23.33
2022-08-11T19:12:15.173Z,23.64
2022-08-11T19:14:07.087Z,23.80
2022-08-11T19:15:59.180Z,23.36
2022-08-11T19:17:54.308Z,23.73
2022-08-11T19:19:48.590Z,23.64
2022-08-11T19:21:42.141Z,23.46
2022-08-11T19:23:37.461Z,23.92
2022-08-11T19:25:30.477Z,23.88
2022-08-11T19:27:21.794Z,24.25
2022-08-11T19:30:07.317Z,24.12
2022-08-11T19:31:26.513Z,24.31
2022-08-11T19:33:51.195Z,24.29
2022-08-11T19:35:31.155Z,24.32
2022-08-11T19:37:24.957Z,24.30
2022-08-11T19:39:16.737Z,24.37
2022-08-11T19:41:08.590Z,24.60
2022-08-11T19:43:00.431Z,24.79
2022-08-11T19:44:50.976Z,24.80
2022-08-11T19:46:42.741Z,24.79
2022-08-11T19:48:34.565Z,24.67
2022-08-11T19:50:26.227Z,24.79
2022-08-11T19:52:19.491Z,24.70
2022-08-11T19:54:12.650Z,24.69
2022-08-11T19:56:04.797Z,24.68
2022-08-11T19:57:56.934Z,24.83
2022-08-11T19:59:49.009Z,24.84
2022-08-11T20:01:39.744Z,24.82
2022-08-11T20:03:51.746Z,25.07
2022-08-11T20:05:55.465Z,24.83
2022-08-11T20:07:51.062Z,24.73
2022-08-11T20:10:05.325Z,24.92
2022-08-11T20:12:01.498Z,24.88
2022-08-11T20:13:53.935Z,24.75
2022-08-11T20:15:45.121Z,25.00
2022-08-11T20:17:37.424Z,25.17
2022-08-11T20:19:55.255Z,24.72
2022-08-11T20:21:41.184Z,25.04
2022-08-11T20:23:35.012Z,24.92
2022-08-11T20:25:26.300Z,24.76
2022-08-11T20:27:24.527Z,25.34
2022-08-11T20:29:17.031Z,25.39
2022-08-11T20:31:09.796Z,25.24
2022-08-11T20:33:01.376Z,25.27
2022-08-11T20:34:55.028Z,25.41
2022-08-11T20:36:53.951Z,25.41
2022-08-11T20:38:49.069Z,24.95
2022-08-11T20:40:43.893Z,25.26
2022-08-11T20:42:37.201Z,25.60
2022-08-11T20:44:29.199Z,25.51
2022-08-11T20:46:21.692Z,25.40
2022-08-11T20:48:15.393Z,25.46
2022-08-11T20:50:08.385Z,25.49
2022-08-11T20:52:10.230Z,25.66
2022-08-11T20:54:05.397Z,25.59
2022-08-11T20:55:57.208Z,25.65
2022-08-11T20:58:00.089Z,25.55
2022-08-11T20:59:57.131Z,26.01
2022-08-11T21:04:01.022Z,25.91
2022-08-11T21:06:08.482Z,25.85
2022-08-11T21:08:13.179Z,25.84
2022-08-11T21:10:09.883Z,26.56
2022-08-11T21:12:02.745Z,26.31
2022-08-11T21:13:57.934Z,26.51
2022-08-11T21:16:01.495Z,26.39
2022-08-11T21:18:00.543Z,26.30
2022-08-11T21:20:07.904Z,26.48
2022-08-11T21:22:05.956Z,26.64
2022-08-11T21:24:00.156Z,26.96
2022-08-11T21:25:55.361Z,26.78
2022-08-11T21:27:53.118Z,26.76
2022-08-11T21:29:45.606Z,26.51
2022-08-11T21:31:37.142Z,26.71
2022-08-11T21:33:28.084Z,26.47
2022-08-11T21:35:20.301Z,26.54
2022-08-11T21:37:12.600Z,26.67
2022-08-11T21:39:04.518Z,26.67
2022-08-11T21:40:58.711Z,26.63
2022-08-11T21:42:51.306Z,27.21
2022-08-11T21:44:42.431Z,27.45
2022-08-11T21:46:36.431Z,27.30
2022-08-11T21:48:28.466Z,26.93
2022-08-11T21:50:18.857Z,27.18
2022-08-11T21:52:09.342Z,27.57
2022-08-11T21:54:01.913Z,27.66
2022-08-11T21:55:53.405Z,27.55
2022-08-11T21:57:47.977Z,27.86
2022-08-11T21:59:47.687Z,27.39
2022-08-11T22:01:39.450Z,27.74
2022-08-11T22:03:30.252Z,27.37
2022-08-11T22:05:28.377Z,28.00
2022-08-11T22:07:19.509Z,27.67
2022-08-11T22:09:11.502Z,27.94
2022-08-11T22:11:02.473Z,28.23
2022-08-11T22:12:52.906Z,28.38
2022-08-11T22:14:43.002Z,28.50
2022-08-11T22:16:33.709Z,28.48
2022-08-11T22:18:23.744Z,28.74
2022-08-11T22:20:16.125Z,28.39
2022-08-11T22:22:07.513Z,28.52
2022-08-11T22:24:01.102Z,28.22
2022-08-11T22:25:55.055Z,29.11
2022-08-11T22:27:49.878Z,29.35
2022-08-11T22:29:51.188Z,29.27
2022-08-11T22:31:42.746Z,29.27
2022-08-11T22:33:34.122Z,28.93
2022-08-11T22:35:28.581Z,29.18
2022-08-11T22:37:27.098Z,29.37
2022-08-11T22:39:21.009Z,29.39
2022-08-11T22:41:13.549Z,28.88
2022-08-11T22:43:04.044Z,29.42
2022-08-11T22:44:54.320Z,29.21
2022-08-11T22:46:46.796Z,29.39
2022-08-11T22:48:39.226Z,29.29
2022-08-11T22:50:32.342Z,29.41
2022-08-11T22:52:24.142Z,29.36
2022-08-11T22:54:16.042Z,29.37
2022-08-11T22:56:07.366Z,29.53
2022-08-11T22:58:01.095Z,30.30
2022-08-11T22:59:53.717Z,29.81
2022-08-11T23:01:56.324Z,29.75
2022-08-11T23:03:49.527Z,29.90
2022-08-11T23:05:40.526Z,30.20
2022-08-11T23:07:50.127Z,30.00
2022-08-11T23:09:43.025Z,29.77
2022-08-11T23:12:04.787Z,30.12
2022-08-11T23:13:48.181Z,29.79
2022-08-11T23:15:40.778Z,29.94
2022-08-11T23:17:32.814Z,30.24
2022-08-11T23:20:06.468Z,30.22
2022-08-11T23:21:35.377Z,30.12
2022-08-11T23:23:26.948Z,30.24